Aviation Digital Data Service (ADDS)

Output produced by METARs form (0641 UTC 24 March 2019)
found at http://www.aviationweather.gov/metar/data/
 
UKKM 240630Z 23004MPS CAVOK 04/M05 Q1017 R15/19//55 NOSIG
TAF UKKM 240507Z 2406/2506 26005MPS 9999 BKN020 TX09/2412Z TN00/2504Z 
     BECMG 2416/2418 VRB01MPS 6000 BKN010 
     TEMPO 2418/2506 2100 BR BKN007
       
UKBB 240630Z 19003MPS CAVOK 02/M02 Q1018 R88/CLRD// NOSIG
TAF UKBB 240503Z 2406/2506 26004G09MPS 6000 BKN015 TX08/2412Z TNM01/2505Z 
     TEMPO 2406/2415 30006G12MPS 2100 -SHRA BR BKN007 SCT015CB 
     BECMG 2415/2417 31003G08MPS 
     TEMPO 2420/2506 VRB01MPS 2000 BR BKN006 
     PROB40 
     TEMPO 2420/2506 0400 FZFG VV002
       
UKLN 240630Z 00000MPS CAVOK 00/M03 Q1021 R33/09//70 NOSIG
TAF UKLN 240505Z 2406/2415 VRB01MPS 9999 SCT040 TX11/2412Z TN00/2406Z 
     TEMPO 2408/2415 30005G10MPS
       
UKDD 240630Z 34006MPS CAVOK 03/M03 Q1018 R26/210370 NOSIG
TAF UKDD 240505Z 2406/2506 33005MPS 9999 BKN020 TX08/2412Z TN01/2503Z 
     TEMPO 2408/2415 29007G12MPS BKN020CB 
     BECMG 2418/2420 26004MPS 
     TEMPO 2421/2506 2100 BR BKN007
       
UKLI 240630Z 00000MPS CAVOK 05/M01 Q1021 R28/090070 NOSIG
TAF UKLI 240501Z 2406/2415 VRB01MPS 9999 SCT030 TX12/2412Z TNM02/2406Z 
     TEMPO 2406/2409 2100 BR BKN010
       
UKDR 240630Z 32003MPS 280V350 CAVOK 04/M03 Q1020 R36/09//70 NOSIG
TAF UKDR 240507Z 2406/2506 31005G10MPS 9999 BKN020 TX10/2412Z TN01/2503Z 
     BECMG 2410/2412 27005MPS 
     BECMG 2418/2420 VRB01MPS
       
UKLL 240630Z VRB01MPS 9000 SCT024CB BKN024 03/M01 Q1021 R31/290055 NOSIG
TAF UKLL 240508Z 2406/2506 32005G10MPS 9999 BKN020 TX10/2412Z TN01/2406Z 
     TEMPO 2406/2410 3000 -SHRA BR BKN007 SCT025CB 
     BECMG 2416/2418 5000 BR BKN010 
     TEMPO 2422/2506 2100 -SHRA SCT004 BKN007 BKN020CB
       
UKDE 240630Z 31005MPS CAVOK 03/M01 Q1018 R02R/090070 NOSIG
TAF UKDE 240501Z 2406/2415 30005MPS 9999 BKN020 TX08/2412Z TN02/2406Z 
     TEMPO 2406/2415 27006G11MPS BKN010 SCT020CB
       
UKON 240600Z 34004MPS 310V010 CAVOK 04/M03 Q1021 NOSIG
TAF UKON 240502Z 2406/2415 32003MPS 9999 SCT025CB TX10/2412Z TN04/2406Z 
     BECMG 2411/2413 26005G11MPS
       
UKOO 240630Z 32002MPS 290V010 CAVOK 06/M04 Q1022 R34/090060 NOSIG
TAF UKOO 240509Z 2406/2506 23005G11MPS 6000 BKN007 SCT020CB TX10/2412Z
TN01/2503Z 
     BECMG 2416/2418 28003MPS 2100 BR
       
UKHH 240630Z 35003MPS 320V050 CAVOK 03/M02 Q1017 R25/0///72 NOSIG
TAF UKHH 240510Z 2406/2506 34005MPS 6000 BKN013 TX05/2412Z TN01/2503Z 
     TEMPO 2409/2415 28007G12MPS 2100 -SHRA BKN007 BKN015CB 
     BECMG 2415/2416 25005MPS 2100 BR BKN007
       
UKLR 240630Z 29005MPS 250V320 9999 BKN025CB 04/M03 Q1019 NOSIG
TAF UKLR 240514Z 2406/2415 29005MPS 9999 BKN020 SCT023CB TX10/2413Z TN04/2406Z 
     TEMPO 2406/2412 32007G12MPS -SHRA BKN010 BKN015CB
       
UKLU 240600Z 32002MPS 9999 NSC 03/M02 Q1023 NOSIG
TAF UKLU 240511Z 2406/2415 30003MPS 9999 NSC TX15/2414Z TN03/2406Z
       
UKKK 240630Z 26003MPS CAVOK 04/M04 Q1017 R26/70D NOSIG
TAF UKKK 240505Z 2406/2506 27004G09MPS 6000 BKN015 TX10/2412Z TNM01/2504Z 
     TEMPO 2408/2415 31006G12MPS 2000 -SHRA BR BKN007 SCT020CB 
     PROB40 
     TEMPO 2408/2415 1500 TSRA SCT005 BKN015CB 
     BECMG 2417/2419 30003G08MPS 
     TEMPO 2419/2506 2000 BR FU SCT005